sensor_id;sensor_type;location;lat;lon;timestamp;pressure;altitude;pressure_sealevel;temperature;humidity
60611;BME280;46439;51.164;13.572;2023-06-26T00:02:04;100118.65;;;22.00;100.00
60611;BME280;46439;51.164;13.572;2023-06-26T00:04:34;100119.37;;;21.93;100.00
60611;BME280;46439;51.164;13.572;2023-06-26T00:07:04;100115.89;;;21.95;100.00
60611;BME280;46439;51.164;13.572;2023-06-26T00:09:33;100114.83;;;21.94;100.00
60611;BME280;46439;51.164;13.572;2023-06-26T00:12:03;100116.75;;;21.93;100.00
60611;BME280;46439;51.164;13.572;2023-06-26T00:14:32;100116.73;;;21.92;100.00
60611;BME280;46439;51.164;13.572;2023-06-26T00:17:00;100112.79;;;21.91;100.00
60611;BME280;46439;51.164;13.572;2023-06-26T00:19:29;100112.76;;;21.88;100.00
60611;BME280;46439;51.164;13.572;2023-06-26T00:21:57;100112.91;;;21.87;100.00
60611;BME280;46439;51.164;13.572;2023-06-26T00:24:26;100114.84;;;21.88;100.00
60611;BME280;46439;51.164;13.572;2023-06-26T00:26:55;100112.59;;;21.92;100.00
60611;BME280;46439;51.164;13.572;2023-06-26T00:29:23;100109.58;;;21.91;100.00
60611;BME280;46439;51.164;13.572;2023-06-26T00:31:52;100105.87;;;21.90;100.00
60611;BME280;46439;51.164;13.572;2023-06-26T00:34:20;100106.38;;;21.88;100.00
60611;BME280;46439;51.164;13.572;2023-06-26T00:36:49;100105.24;;;21.86;100.00
60611;BME280;46439;51.164;13.572;2023-06-26T00:39:17;100100.83;;;21.84;100.00
60611;BME280;46439;51.164;13.572;2023-06-26T00:41:46;100100.75;;;21.80;100.00
60611;BME280;46439;51.164;13.572;2023-06-26T00:44:14;100099.08;;;21.76;100.00
60611;BME280;46439;51.164;13.572;2023-06-26T00:46:43;100093.52;;;21.74;100.00
60611;BME280;46439;51.164;13.572;2023-06-26T00:49:11;100097.37;;;21.68;100.00
60611;BME280;46439;51.164;13.572;2023-06-26T00:51:41;100100.02;;;21.63;100.00
60611;BME280;46439;51.164;13.572;2023-06-26T00:54:10;100099.89;;;21.58;100.00
60611;BME280;46439;51.164;13.572;2023-06-26T00:56:39;100097.45;;;21.54;100.00
60611;BME280;46439;51.164;13.572;2023-06-26T00:59:08;100096.86;;;21.55;100.00
60611;BME280;46439;51.164;13.572;2023-06-26T01:01:36;100093.70;;;21.53;100.00
60611;BME280;46439;51.164;13.572;2023-06-26T01:04:05;100091.64;;;21.51;100.00
60611;BME280;46439;51.164;13.572;2023-06-26T01:06:34;100096.40;;;21.50;100.00
60611;BME280;46439;51.164;13.572;2023-06-26T01:09:04;100095.50;;;21.49;100.00
60611;BME280;46439;51.164;13.572;2023-06-26T01:11:33;100095.54;;;21.48;100.00
60611;BME280;46439;51.164;13.572;2023-06-26T01:14:02;100100.46;;;21.47;100.00
60611;BME280;46439;51.164;13.572;2023-06-26T01:16:31;100095.35;;;21.44;100.00
60611;BME280;46439;51.164;13.572;2023-06-26T01:19:04;100092.02;;;21.37;100.00
60611;BME280;46439;51.164;13.572;2023-06-26T01:21:40;100091.43;;;21.32;100.00
60611;BME280;46439;51.164;13.572;2023-06-26T01:24:15;100089.35;;;21.26;100.00
60611;BME280;46439;51.164;13.572;2023-06-26T01:26:50;100084.42;;;21.24;100.00
60611;BME280;46439;51.164;13.572;2023-06-26T01:29:19;100083.26;;;21.18;100.00
60611;BME280;46439;51.164;13.572;2023-06-26T01:31:50;100079.45;;;21.14;100.00
60611;BME280;46439;51.164;13.572;2023-06-26T01:34:19;100079.99;;;21.20;100.00
60611;BME280;46439;51.164;13.572;2023-06-26T01:36:48;100080.15;;;21.13;100.00
60611;BME280;46439;51.164;13.572;2023-06-26T01:39:18;100079.38;;;20.99;100.00
60611;BME280;46439;51.164;13.572;2023-06-26T01:41:47;100079.42;;;20.86;100.00
60611;BME280;46439;51.164;13.572;2023-06-26T01:44:26;100078.35;;;20.85;100.00
60611;BME280;46439;51.164;13.572;2023-06-26T01:47:02;100070.92;;;20.89;100.00
60611;BME280;46439;51.164;13.572;2023-06-26T01:49:40;100069.48;;;20.92;100.00
60611;BME280;46439;51.164;13.572;2023-06-26T01:52:18;100065.06;;;20.87;100.00
60611;BME280;46439;51.164;13.572;2023-06-26T01:54:55;100060.46;;;20.85;100.00
60611;BME280;46439;51.164;13.572;2023-06-26T01:57:27;100061.42;;;20.84;100.00
60611;BME280;46439;51.164;13.572;2023-06-26T01:59:58;100060.83;;;20.82;100.00
60611;BME280;46439;51.164;13.572;2023-06-26T02:02:29;100058.88;;;20.80;100.00
60611;BME280;46439;51.164;13.572;2023-06-26T02:04:58;100056.65;;;20.73;100.00
60611;BME280;46439;51.164;13.572;2023-06-26T02:07:26;100052.76;;;20.68;100.00
60611;BME280;46439;51.164;13.572;2023-06-26T02:09:55;100052.35;;;20.65;100.00
60611;BME280;46439;51.164;13.572;2023-06-26T02:12:24;100052.51;;;20.61;100.00
60611;BME280;46439;51.164;13.572;2023-06-26T02:14:52;100049.05;;;20.58;100.00
60611;BME280;46439;51.164;13.572;2023-06-26T02:17:21;100049.79;;;20.53;100.00
60611;BME280;46439;51.164;13.572;2023-06-26T02:19:49;100048.90;;;20.42;100.00
60611;BME280;46439;51.164;13.572;2023-06-26T02:22:18;100048.64;;;20.40;100.00
60611;BME280;46439;51.164;13.572;2023-06-26T02:24:46;100045.27;;;20.37;100.00
60611;BME280;46439;51.164;13.572;2023-06-26T02:27:15;100045.58;;;20.35;100.00
60611;BME280;46439;51.164;13.572;2023-06-26T02:29:44;100045.50;;;20.34;100.00
60611;BME280;46439;51.164;13.572;2023-06-26T02:32:12;100046.48;;;20.32;100.00
60611;BME280;46439;51.164;13.572;2023-06-26T02:34:41;100043.80;;;20.29;100.00
60611;BME280;46439;51.164;13.572;2023-06-26T02:37:09;100040.05;;;20.29;100.00
60611;BME280;46439;51.164;13.572;2023-06-26T02:39:38;100037.16;;;20.28;100.00
60611;BME280;46439;51.164;13.572;2023-06-26T02:42:07;100038.85;;;20.26;100.00
60611;BME280;46439;51.164;13.572;2023-06-26T02:44:36;100034.26;;;20.21;100.00
60611;BME280;46439;51.164;13.572;2023-06-26T02:47:05;100033.02;;;20.22;100.00
60611;BME280;46439;51.164;13.572;2023-06-26T02:49:34;100037.06;;;20.22;100.00
60611;BME280;46439;51.164;13.572;2023-06-26T02:52:02;100037.89;;;20.19;100.00
60611;BME280;46439;51.164;13.572;2023-06-26T02:54:31;100041.63;;;20.13;100.00
60611;BME280;46439;51.164;13.572;2023-06-26T02:57:00;100040.63;;;20.10;100.00
60611;BME280;46439;51.164;13.572;2023-06-26T02:59:29;100038.98;;;20.07;100.00
60611;BME280;46439;51.164;13.572;2023-06-26T03:01:58;100034.30;;;20.04;100.00
60611;BME280;46439;51.164;13.572;2023-06-26T03:04:26;100034.36;;;19.99;100.00
60611;BME280;46439;51.164;13.572;2023-06-26T03:06:54;100036.48;;;19.99;100.00
60611;BME280;46439;51.164;13.572;2023-06-26T03:09:23;100036.15;;;19.99;100.00
60611;BME280;46439;51.164;13.572;2023-06-26T03:11:51;100034.73;;;19.96;100.00
60611;BME280;46439;51.164;13.572;2023-06-26T03:14:21;100031.20;;;19.95;100.00
60611;BME280;46439;51.164;13.572;2023-06-26T03:16:49;100030.70;;;19.92;100.00
60611;BME280;46439;51.164;13.572;2023-06-26T03:19:20;100034.30;;;19.94;100.00
60611;BME280;46439;51.164;13.572;2023-06-26T03:21:49;100030.92;;;19.96;100.00
60611;BME280;46439;51.164;13.572;2023-06-26T03:24:17;100029.64;;;19.99;100.00
60611;BME280;46439;51.164;13.572;2023-06-26T03:26:46;100029.84;;;20.01;100.00
60611;BME280;46439;51.164;13.572;2023-06-26T03:29:15;100029.04;;;19.99;100.00
60611;BME280;46439;51.164;13.572;2023-06-26T03:31:43;100024.05;;;19.96;100.00
60611;BME280;46439;51.164;13.572;2023-06-26T03:34:11;100023.46;;;19.90;100.00
60611;BME280;46439;51.164;13.572;2023-06-26T03:36:40;100020.42;;;19.82;100.00
60611;BME280;46439;51.164;13.572;2023-06-26T03:39:09;100020.67;;;19.88;100.00
60611;BME280;46439;51.164;13.572;2023-06-26T03:41:38;100015.98;;;19.88;100.00
60611;BME280;46439;51.164;13.572;2023-06-26T03:44:06;100013.95;;;19.86;100.00
60611;BME280;46439;51.164;13.572;2023-06-26T03:46:35;100010.83;;;19.86;100.00
60611;BME280;46439;51.164;13.572;2023-06-26T03:49:03;100011.42;;;19.91;100.00
60611;BME280;46439;51.164;13.572;2023-06-26T03:51:32;100012.50;;;19.97;100.00
60611;BME280;46439;51.164;13.572;2023-06-26T03:54:01;100014.05;;;19.93;100.00
60611;BME280;46439;51.164;13.572;2023-06-26T03:56:29;100015.08;;;19.92;100.00
60611;BME280;46439;51.164;13.572;2023-06-26T03:58:58;100010.94;;;19.96;100.00
60611;BME280;46439;51.164;13.572;2023-06-26T04:01:26;100012.35;;;19.97;100.00
60611;BME280;46439;51.164;13.572;2023-06-26T04:03:55;100012.52;;;19.98;100.00
60611;BME280;46439;51.164;13.572;2023-06-26T04:06:24;100009.08;;;20.06;100.00
60611;BME280;46439;51.164;13.572;2023-06-26T04:08:52;100006.63;;;20.09;100.00
60611;BME280;46439;51.164;13.572;2023-06-26T04:11:21;100010.19;;;20.11;100.00
60611;BME280;46439;51.164;13.572;2023-06-26T04:13:49;100008.39;;;20.11;100.00
60611;BME280;46439;51.164;13.572;2023-06-26T04:16:18;100007.19;;;20.12;100.00
60611;BME280;46439;51.164;13.572;2023-06-26T04:18:47;100006.27;;;20.15;100.00
60611;BME280;46439;51.164;13.572;2023-06-26T04:21:15;100009.02;;;20.21;100.00
60611;BME280;46439;51.164;13.572;2023-06-26T04:23:45;100005.53;;;20.24;100.00
60611;BME280;46439;51.164;13.572;2023-06-26T04:26:13;100005.70;;;20.22;100.00
60611;BME280;46439;51.164;13.572;2023-06-26T04:28:43;100002.70;;;20.20;100.00
60611;BME280;46439;51.164;13.572;2023-06-26T04:31:11;100002.36;;;20.22;100.00
60611;BME280;46439;51.164;13.572;2023-06-26T04:33:40;100003.06;;;20.24;100.00
60611;BME280;46439;51.164;13.572;2023-06-26T04:36:09;100004.40;;;20.25;100.00
60611;BME280;46439;51.164;13.572;2023-06-26T04:38:37;100004.09;;;20.26;100.00
60611;BME280;46439;51.164;13.572;2023-06-26T04:41:06;100006.23;;;20.33;100.00
60611;BME280;46439;51.164;13.572;2023-06-26T04:43:34;100006.95;;;20.34;100.00
60611;BME280;46439;51.164;13.572;2023-06-26T04:46:03;100002.81;;;20.35;100.00
60611;BME280;46439;51.164;13.572;2023-06-26T04:48:32;99999.63;;;20.41;100.00
60611;BME280;46439;51.164;13.572;2023-06-26T04:51:00;99996.96;;;20.42;100.00
60611;BME280;46439;51.164;13.572;2023-06-26T04:53:29;99991.60;;;20.45;100.00
60611;BME280;46439;51.164;13.572;2023-06-26T04:55:57;99993.73;;;20.47;100.00
60611;BME280;46439;51.164;13.572;2023-06-26T04:58:26;99992.18;;;20.46;100.00
60611;BME280;46439;51.164;13.572;2023-06-26T05:00:54;99990.64;;;20.47;100.00
60611;BME280;46439;51.164;13.572;2023-06-26T05:03:23;99987.25;;;20.49;100.00
60611;BME280;46439;51.164;13.572;2023-06-26T05:05:52;99989.27;;;20.52;100.00
60611;BME280;46439;51.164;13.572;2023-06-26T05:08:23;99988.70;;;20.53;100.00
60611;BME280;46439;51.164;13.572;2023-06-26T05:10:52;99986.80;;;20.55;100.00
60611;BME280;46439;51.164;13.572;2023-06-26T05:13:21;99988.17;;;20.60;100.00
60611;BME280;46439;51.164;13.572;2023-06-26T05:15:50;99984.27;;;20.64;100.00
60611;BME280;46439;51.164;13.572;2023-06-26T05:18:19;99984.11;;;20.67;100.00
60611;BME280;46439;51.164;13.572;2023-06-26T05:20:49;99981.70;;;20.70;100.00
60611;BME280;46439;51.164;13.572;2023-06-26T05:23:18;99980.50;;;20.76;100.00
60611;BME280;46439;51.164;13.572;2023-06-26T05:25:48;99978.61;;;20.81;100.00
60611;BME280;46439;51.164;13.572;2023-06-26T05:28:19;99976.65;;;20.84;100.00
60611;BME280;46439;51.164;13.572;2023-06-26T05:30:49;99970.86;;;20.86;100.00
60611;BME280;46439;51.164;13.572;2023-06-26T05:33:19;99968.52;;;20.87;100.00
60611;BME280;46439;51.164;13.572;2023-06-26T05:35:50;99966.11;;;20.90;100.00
60611;BME280;46439;51.164;13.572;2023-06-26T05:38:21;99963.16;;;20.94;100.00
60611;BME280;46439;51.164;13.572;2023-06-26T05:40:51;99959.13;;;20.99;100.00
60611;BME280;46439;51.164;13.572;2023-06-26T05:43:20;99956.31;;;21.07;100.00
60611;BME280;46439;51.164;13.572;2023-06-26T05:45:49;99952.84;;;21.16;100.00
60611;BME280;46439;51.164;13.572;2023-06-26T05:48:18;99953.35;;;21.24;100.00
60611;BME280;46439;51.164;13.572;2023-06-26T05:50:47;99952.11;;;21.32;100.00
60611;BME280;46439;51.164;13.572;2023-06-26T05:53:19;99947.58;;;21.41;100.00
60611;BME280;46439;51.164;13.572;2023-06-26T05:55:48;99945.02;;;21.52;100.00
60611;BME280;46439;51.164;13.572;2023-06-26T05:58:19;99944.92;;;21.63;100.00
60611;BME280;46439;51.164;13.572;2023-06-26T06:00:48;99946.90;;;21.74;100.00
60611;BME280;46439;51.164;13.572;2023-06-26T06:03:17;99944.77;;;21.86;100.00
60611;BME280;46439;51.164;13.572;2023-06-26T06:05:45;99944.60;;;21.98;100.00
60611;BME280;46439;51.164;13.572;2023-06-26T06:08:14;99941.42;;;22.09;100.00
60611;BME280;46439;51.164;13.572;2023-06-26T06:10:42;99942.73;;;22.21;100.00
60611;BME280;46439;51.164;13.572;2023-06-26T06:13:11;99941.27;;;22.33;100.00
60611;BME280;46439;51.164;13.572;2023-06-26T06:15:39;99940.81;;;22.45;100.00
60611;BME280;46439;51.164;13.572;2023-06-26T06:18:08;99942.13;;;22.56;100.00
60611;BME280;46439;51.164;13.572;2023-06-26T06:20:36;99940.58;;;22.70;100.00
60611;BME280;46439;51.164;13.572;2023-06-26T06:23:05;99938.23;;;22.83;100.00
60611;BME280;46439;51.164;13.572;2023-06-26T06:25:34;99935.96;;;22.93;100.00
60611;BME280;46439;51.164;13.572;2023-06-26T06:28:03;99934.85;;;23.03;100.00
60611;BME280;46439;51.164;13.572;2023-06-26T06:30:33;99934.57;;;23.13;100.00
60611;BME280;46439;51.164;13.572;2023-06-26T06:33:01;99931.50;;;23.22;100.00
60611;BME280;46439;51.164;13.572;2023-06-26T06:35:29;99926.69;;;23.33;100.00
60611;BME280;46439;51.164;13.572;2023-06-26T06:37:58;99924.06;;;23.45;100.00
60611;BME280;46439;51.164;13.572;2023-06-26T06:40:26;99920.56;;;23.57;100.00
60611;BME280;46439;51.164;13.572;2023-06-26T06:42:55;99921.58;;;23.70;100.00
60611;BME280;46439;51.164;13.572;2023-06-26T06:45:24;99920.14;;;23.82;100.00
60611;BME280;46439;51.164;13.572;2023-06-26T06:47:52;99919.15;;;23.93;100.00
60611;BME280;46439;51.164;13.572;2023-06-26T06:50:21;99914.30;;;24.04;100.00
60611;BME280;46439;51.164;13.572;2023-06-26T06:52:49;99912.77;;;24.13;100.00
60611;BME280;46439;51.164;13.572;2023-06-26T06:55:18;99910.46;;;24.26;100.00
60611;BME280;46439;51.164;13.572;2023-06-26T06:57:46;99908.39;;;24.37;100.00
60611;BME280;46439;51.164;13.572;2023-06-26T07:00:16;99910.25;;;24.46;100.00
60611;BME280;46439;51.164;13.572;2023-06-26T07:02:46;99912.40;;;24.59;100.00
60611;BME280;46439;51.164;13.572;2023-06-26T07:05:14;99911.41;;;24.70;100.00
60611;BME280;46439;51.164;13.572;2023-06-26T07:07:43;99912.48;;;24.78;100.00
60611;BME280;46439;51.164;13.572;2023-06-26T07:10:13;99906.98;;;24.87;100.00
60611;BME280;46439;51.164;13.572;2023-06-26T07:12:42;99904.49;;;24.96;100.00
60611;BME280;46439;51.164;13.572;2023-06-26T07:15:12;99899.85;;;25.03;100.00
60611;BME280;46439;51.164;13.572;2023-06-26T07:17:41;99902.00;;;25.12;100.00
60611;BME280;46439;51.164;13.572;2023-06-26T07:20:11;99900.63;;;25.23;100.00
60611;BME280;46439;51.164;13.572;2023-06-26T07:22:43;99897.33;;;25.33;100.00
60611;BME280;46439;51.164;13.572;2023-06-26T07:25:15;99898.20;;;25.43;100.00
60611;BME280;46439;51.164;13.572;2023-06-26T07:27:44;99895.38;;;25.44;100.00
60611;BME280;46439;51.164;13.572;2023-06-26T07:30:13;99898.04;;;25.39;100.00
60611;BME280;46439;51.164;13.572;2023-06-26T07:32:44;99896.87;;;25.47;100.00
60611;BME280;46439;51.164;13.572;2023-06-26T07:35:13;99894.26;;;25.51;100.00
60611;BME280;46439;51.164;13.572;2023-06-26T07:37:41;99890.86;;;25.61;100.00
60611;BME280;46439;51.164;13.572;2023-06-26T07:40:11;99895.20;;;25.72;100.00
60611;BME280;46439;51.164;13.572;2023-06-26T07:42:40;99916.00;;;25.88;100.00
60611;BME280;46439;51.164;13.572;2023-06-26T07:45:10;99913.60;;;26.06;100.00
60611;BME280;46439;51.164;13.572;2023-06-26T07:47:38;99917.52;;;26.19;100.00
60611;BME280;46439;51.164;13.572;2023-06-26T07:50:08;99914.80;;;26.31;100.00
60611;BME280;46439;51.164;13.572;2023-06-26T07:52:37;99911.16;;;26.41;100.00
60611;BME280;46439;51.164;13.572;2023-06-26T07:55:06;99910.15;;;26.52;100.00
60611;BME280;46439;51.164;13.572;2023-06-26T07:57:35;99911.40;;;26.56;100.00
60611;BME280;46439;51.164;13.572;2023-06-26T08:00:06;99911.98;;;26.53;100.00
60611;BME280;46439;51.164;13.572;2023-06-26T08:02:35;99906.19;;;26.57;100.00
60611;BME280;46439;51.164;13.572;2023-06-26T08:05:04;99905.99;;;26.67;100.00
60611;BME280;46439;51.164;13.572;2023-06-26T08:07:33;99905.98;;;26.76;100.00
60611;BME280;46439;51.164;13.572;2023-06-26T08:10:01;99900.48;;;26.80;100.00
60611;BME280;46439;51.164;13.572;2023-06-26T08:12:31;99897.54;;;26.86;100.00
60611;BME280;46439;51.164;13.572;2023-06-26T08:14:59;99893.02;;;26.97;100.00
60611;BME280;46439;51.164;13.572;2023-06-26T08:17:30;99894.48;;;27.03;100.00
60611;BME280;46439;51.164;13.572;2023-06-26T08:19:59;99889.16;;;27.20;100.00
60611;BME280;46439;51.164;13.572;2023-06-26T08:22:27;99893.78;;;27.27;100.00
60611;BME280;46439;51.164;13.572;2023-06-26T08:24:56;99891.13;;;27.33;100.00
60611;BME280;46439;51.164;13.572;2023-06-26T08:27:24;99886.38;;;27.59;100.00
60611;BME280;46439;51.164;13.572;2023-06-26T08:29:53;99881.54;;;27.69;100.00
60611;BME280;46439;51.164;13.572;2023-06-26T08:32:21;99884.60;;;27.78;100.00
60611;BME280;46439;51.164;13.572;2023-06-26T08:34:50;99883.77;;;27.90;100.00
60611;BME280;46439;51.164;13.572;2023-06-26T08:37:19;99877.24;;;27.97;100.00
60611;BME280;46439;51.164;13.572;2023-06-26T08:39:48;99876.52;;;27.87;100.00
60611;BME280;46439;51.164;13.572;2023-06-26T08:42:17;99872.31;;;27.92;100.00
60611;BME280;46439;51.164;13.572;2023-06-26T08:44:46;99873.85;;;28.03;100.00
60611;BME280;46439;51.164;13.572;2023-06-26T08:47:14;99867.81;;;28.06;100.00
60611;BME280;46439;51.164;13.572;2023-06-26T08:49:53;99866.79;;;28.33;100.00
60611;BME280;46439;51.164;13.572;2023-06-26T08:52:28;99865.11;;;28.49;100.00
60611;BME280;46439;51.164;13.572;2023-06-26T08:54:59;99863.85;;;28.64;100.00
60611;BME280;46439;51.164;13.572;2023-06-26T08:57:32;99862.90;;;28.68;100.00
60611;BME280;46439;51.164;13.572;2023-06-26T09:00:00;99860.29;;;28.75;100.00
60611;BME280;46439;51.164;13.572;2023-06-26T09:02:30;99858.44;;;28.72;100.00
60611;BME280;46439;51.164;13.572;2023-06-26T09:04:59;99862.87;;;28.77;100.00
60611;BME280;46439;51.164;13.572;2023-06-26T09:07:27;99861.39;;;28.96;100.00
60611;BME280;46439;51.164;13.572;2023-06-26T09:09:56;99859.49;;;29.14;100.00
60611;BME280;46439;51.164;13.572;2023-06-26T09:12:28;99855.58;;;29.25;100.00
60611;BME280;46439;51.164;13.572;2023-06-26T09:14:57;99854.02;;;29.36;100.00
60611;BME280;46439;51.164;13.572;2023-06-26T09:17:27;99853.75;;;29.48;100.00
60611;BME280;46439;51.164;13.572;2023-06-26T09:19:57;99851.23;;;29.54;100.00
60611;BME280;46439;51.164;13.572;2023-06-26T09:22:26;99848.86;;;29.68;100.00
60611;BME280;46439;51.164;13.572;2023-06-26T09:24:55;99846.95;;;29.78;100.00
60611;BME280;46439;51.164;13.572;2023-06-26T09:27:23;99845.16;;;29.87;100.00
60611;BME280;46439;51.164;13.572;2023-06-26T09:29:52;99847.94;;;29.95;100.00
60611;BME280;46439;51.164;13.572;2023-06-26T09:32:21;99843.58;;;29.93;100.00
60611;BME280;46439;51.164;13.572;2023-06-26T09:34:53;99846.59;;;29.98;100.00
60611;BME280;46439;51.164;13.572;2023-06-26T09:37:24;99842.85;;;29.96;100.00
60611;BME280;46439;51.164;13.572;2023-06-26T09:39:53;99840.42;;;30.00;100.00
60611;BME280;46439;51.164;13.572;2023-06-26T09:42:22;99837.36;;;30.05;100.00
60611;BME280;46439;51.164;13.572;2023-06-26T09:44:51;99841.67;;;30.22;100.00
60611;BME280;46439;51.164;13.572;2023-06-26T09:47:21;99841.33;;;30.30;100.00
60611;BME280;46439;51.164;13.572;2023-06-26T09:49:50;99837.60;;;30.35;100.00
60611;BME280;46439;51.164;13.572;2023-06-26T09:52:20;99837.83;;;30.47;100.00
60611;BME280;46439;51.164;13.572;2023-06-26T09:54:50;99834.86;;;30.65;100.00
60611;BME280;46439;51.164;13.572;2023-06-26T09:57:18;99828.12;;;30.76;100.00
60611;BME280;46439;51.164;13.572;2023-06-26T09:59:47;99834.21;;;30.85;100.00
60611;BME280;46439;51.164;13.572;2023-06-26T10:02:17;99829.05;;;30.93;100.00
60611;BME280;46439;51.164;13.572;2023-06-26T10:04:45;99828.88;;;30.93;100.00
60611;BME280;46439;51.164;13.572;2023-06-26T10:07:17;99827.61;;;30.87;100.00
60611;BME280;46439;51.164;13.572;2023-06-26T10:09:48;99822.55;;;30.92;100.00
60611;BME280;46439;51.164;13.572;2023-06-26T10:12:22;99817.12;;;30.99;100.00
60611;BME280;46439;51.164;13.572;2023-06-26T10:14:53;99816.40;;;31.05;100.00
60611;BME280;46439;51.164;13.572;2023-06-26T10:17:27;99814.30;;;31.11;100.00
60611;BME280;46439;51.164;13.572;2023-06-26T10:19:59;99816.80;;;31.16;100.00
60611;BME280;46439;51.164;13.572;2023-06-26T10:22:33;99808.52;;;31.27;100.00
60611;BME280;46439;51.164;13.572;2023-06-26T10:25:06;99801.13;;;31.44;100.00
60611;BME280;46439;51.164;13.572;2023-06-26T10:27:40;99796.39;;;31.41;100.00
60611;BME280;46439;51.164;13.572;2023-06-26T10:30:16;99795.81;;;31.47;100.00
60611;BME280;46439;51.164;13.572;2023-06-26T10:32:46;99802.38;;;31.52;100.00
60611;BME280;46439;51.164;13.572;2023-06-26T10:35:15;99794.63;;;31.62;100.00
60611;BME280;46439;51.164;13.572;2023-06-26T10:37:45;99785.91;;;31.68;100.00
60611;BME280;46439;51.164;13.572;2023-06-26T10:40:20;99782.86;;;31.86;100.00
60611;BME280;46439;51.164;13.572;2023-06-26T10:42:49;99780.63;;;31.94;100.00
60611;BME280;46439;51.164;13.572;2023-06-26T10:45:22;99781.94;;;31.83;100.00
60611;BME280;46439;51.164;13.572;2023-06-26T10:47:53;99781.47;;;31.82;100.00
60611;BME280;46439;51.164;13.572;2023-06-26T10:50:25;99782.19;;;31.78;100.00
60611;BME280;46439;51.164;13.572;2023-06-26T10:53:12;99778.73;;;31.79;100.00
60611;BME280;46439;51.164;13.572;2023-06-26T10:55:51;99773.86;;;31.86;100.00
60611;BME280;46439;51.164;13.572;2023-06-26T10:58:40;99776.38;;;32.01;100.00
60611;BME280;46439;51.164;13.572;2023-06-26T11:01:21;99770.36;;;32.05;100.00
60611;BME280;46439;51.164;13.572;2023-06-26T11:04:01;99769.81;;;32.10;100.00
60611;BME280;46439;51.164;13.572;2023-06-26T11:06:32;99765.38;;;32.19;100.00
60611;BME280;46439;51.164;13.572;2023-06-26T11:09:09;99760.88;;;32.27;100.00
60611;BME280;46439;51.164;13.572;2023-06-26T11:12:00;99761.27;;;32.36;100.00
60611;BME280;46439;51.164;13.572;2023-06-26T11:14:33;99758.30;;;32.46;100.00
60611;BME280;46439;51.164;13.572;2023-06-26T11:17:04;99757.87;;;32.56;100.00
60611;BME280;46439;51.164;13.572;2023-06-26T11:19:33;99757.45;;;32.64;100.00
60611;BME280;46439;51.164;13.572;2023-06-26T11:22:03;99754.84;;;32.69;100.00
60611;BME280;46439;51.164;13.572;2023-06-26T11:24:31;99761.28;;;32.73;100.00
60611;BME280;46439;51.164;13.572;2023-06-26T11:27:04;99754.40;;;32.74;100.00
60611;BME280;46439;51.164;13.572;2023-06-26T11:29:33;99748.82;;;32.81;100.00
60611;BME280;46439;51.164;13.572;2023-06-26T11:32:04;99749.25;;;32.91;100.00
60611;BME280;46439;51.164;13.572;2023-06-26T11:34:34;99748.96;;;32.99;100.00
60611;BME280;46439;51.164;13.572;2023-06-26T11:37:04;99745.08;;;33.07;100.00
60611;BME280;46439;51.164;13.572;2023-06-26T11:39:32;99746.48;;;33.14;100.00
60611;BME280;46439;51.164;13.572;2023-06-26T11:42:02;99746.61;;;33.19;100.00
60611;BME280;46439;51.164;13.572;2023-06-26T11:44:35;99743.13;;;33.25;100.00
60611;BME280;46439;51.164;13.572;2023-06-26T11:47:09;99735.27;;;33.32;100.00
60611;BME280;46439;51.164;13.572;2023-06-26T11:49:43;99731.65;;;33.40;100.00
60611;BME280;46439;51.164;13.572;2023-06-26T11:52:13;99731.16;;;33.47;100.00
60611;BME280;46439;51.164;13.572;2023-06-26T11:54:42;99729.75;;;33.56;100.00
60611;BME280;46439;51.164;13.572;2023-06-26T11:57:15;99727.04;;;33.70;100.00
60611;BME280;46439;51.164;13.572;2023-06-26T11:59:44;99720.59;;;33.79;100.00
60611;BME280;46439;51.164;13.572;2023-06-26T12:02:16;99722.48;;;33.84;100.00
60611;BME280;46439;51.164;13.572;2023-06-26T12:04:45;99721.58;;;33.90;100.00
60611;BME280;46439;51.164;13.572;2023-06-26T12:07:14;99720.27;;;33.85;100.00
60611;BME280;46439;51.164;13.572;2023-06-26T12:09:45;99716.20;;;33.82;100.00
60611;BME280;46439;51.164;13.572;2023-06-26T12:12:16;99713.89;;;33.86;100.00
60611;BME280;46439;51.164;13.572;2023-06-26T12:14:45;99704.64;;;33.93;100.00
60611;BME280;46439;51.164;13.572;2023-06-26T12:17:15;99699.30;;;34.02;100.00
60611;BME280;46439;51.164;13.572;2023-06-26T12:19:46;99693.01;;;34.09;100.00
60611;BME280;46439;51.164;13.572;2023-06-26T12:22:18;99685.69;;;34.16;100.00
60611;BME280;46439;51.164;13.572;2023-06-26T12:24:48;99688.34;;;34.23;100.00
60611;BME280;46439;51.164;13.572;2023-06-26T12:27:17;99689.89;;;34.30;100.00
60611;BME280;46439;51.164;13.572;2023-06-26T12:29:53;99681.03;;;34.38;100.00
60611;BME280;46439;51.164;13.572;2023-06-26T12:32:24;99677.71;;;34.44;100.00
60611;BME280;46439;51.164;13.572;2023-06-26T12:34:53;99680.18;;;34.48;100.00
60611;BME280;46439;51.164;13.572;2023-06-26T12:37:24;99670.66;;;34.51;100.00
60611;BME280;46439;51.164;13.572;2023-06-26T12:39:53;99671.67;;;34.59;100.00
60611;BME280;46439;51.164;13.572;2023-06-26T12:42:23;99669.16;;;34.63;100.00
60611;BME280;46439;51.164;13.572;2023-06-26T12:44:54;99671.37;;;34.64;100.00
60611;BME280;46439;51.164;13.572;2023-06-26T12:47:28;99668.52;;;34.67;100.00
60611;BME280;46439;51.164;13.572;2023-06-26T12:50:04;99661.93;;;34.71;100.00